New Ellenton, South Carolina
Current Conditions -  °F | °C
As of 11:55 PM on Sunday 21 Dec 2014 (Local Time) from KAIK Reporting Station
Drizzle Drizzle  
Wind Chill: 40°   Ceiling: 700
Heat Index: 45°   Visibility: 5mi
Dew Point: 45°   Wind: 8mph
Humidity: 100%   Direction: 30°NNE
Pressure: 30.14"   Gusts: NA
Location:  33.42°N, 81.69°W
Report Text: KAIK 220455Z AUTO 03007KT 5SM -DZ OVC007 07/07 A3014 RMK AO2 PNO
Loading
Personal Weather Stations






























Interactive Weather Map New forecast layout! Learn more

10-Day Weather Forecast

Advertisements
Track Severe Weather on mobile